createdAt,value
2022-10-17T00:00:16.995Z,41.80
2022-10-17T00:05:19.098Z,33.17
2022-10-17T00:10:22.335Z,37.65
2022-10-17T00:15:26.877Z,44.13
2022-10-17T00:20:30.524Z,32.53
2022-10-17T00:25:32.665Z,30.90
2022-10-17T00:30:34.697Z,34.70
2022-10-17T00:35:37.349Z,35.83
2022-10-17T00:40:39.586Z,40.05
2022-10-17T00:45:42.315Z,44.87
2022-10-17T00:50:48.960Z,33.58
2022-10-17T01:05:57.457Z,28.77
2022-10-17T01:11:11.996Z,35.75
2022-10-17T01:16:34.698Z,38.10
2022-10-17T01:21:50.740Z,34.50
2022-10-17T01:27:33.901Z,32.70
2022-10-17T01:32:45.358Z,33.58
2022-10-17T01:38:11.753Z,34.60
2022-10-17T01:43:17.016Z,51.33
2022-10-17T01:48:23.856Z,46.40
2022-10-17T01:53:32.001Z,44.17
2022-10-17T01:58:38.397Z,38.33
2022-10-17T02:03:43.655Z,64.57
2022-10-17T02:08:48.611Z,54.40
2022-10-17T02:14:03.190Z,43.40
2022-10-17T02:19:33.641Z,34.17
2022-10-17T02:24:48.438Z,33.40
2022-10-17T02:30:01.180Z,35.50
2022-10-17T02:35:07.478Z,32.15
2022-10-17T02:40:11.280Z,37.22
2022-10-17T02:45:15.884Z,34.55
2022-10-17T02:50:20.061Z,35.88
2022-10-17T02:55:28.504Z,37.92
2022-10-17T03:00:33.383Z,44.95
2022-10-17T03:05:36.021Z,38.75
2022-10-17T03:10:37.987Z,44.28
2022-10-17T03:15:41.095Z,32.30
2022-10-17T03:20:43.793Z,35.90
2022-10-17T03:25:45.894Z,46.92
2022-10-17T03:30:49.628Z,35.05
2022-10-17T03:35:51.673Z,39.38
2022-10-17T03:40:57.110Z,39.28
2022-10-17T03:46:00.749Z,45.97
2022-10-17T03:51:09.215Z,52.08
2022-10-17T03:56:22.062Z,43.97
2022-10-17T04:01:35.342Z,38.10
2022-10-17T04:06:38.300Z,42.42
2022-10-17T04:11:40.647Z,41.25
2022-10-17T04:16:42.977Z,43.60
2022-10-17T04:21:52.602Z,49.17
2022-10-17T04:26:55.808Z,41.78
2022-10-17T04:32:00.668Z,46.22
2022-10-17T04:37:10.933Z,44.45
2022-10-17T04:42:13.316Z,43.65
2022-10-17T04:47:16.263Z,42.87
2022-10-17T04:52:19.033Z,60.00
2022-10-17T04:57:24.918Z,44.25
2022-10-17T05:02:34.753Z,47.63
2022-10-17T05:07:41.587Z,58.00
2022-10-17T05:12:49.601Z,52.00
2022-10-17T05:18:04.163Z,52.05
2022-10-17T05:23:07.981Z,41.40
2022-10-17T05:28:14.808Z,46.63
2022-10-17T05:33:19.371Z,44.78
2022-10-17T05:43:25.147Z,43.97
2022-10-17T05:48:28.325Z,38.00
2022-10-17T05:53:32.965Z,39.60
2022-10-17T05:58:50.308Z,45.38
2022-10-17T06:04:17.381Z,38.78
2022-10-17T06:09:19.501Z,39.83
2022-10-17T06:14:24.565Z,42.83
2022-10-17T06:19:30.790Z,41.83
2022-10-17T06:24:32.968Z,40.92
2022-10-17T06:29:39.048Z,42.33
2022-10-17T06:34:41.488Z,40.30
2022-10-17T06:39:44.385Z,48.10
2022-10-17T06:44:53.449Z,41.28
2022-10-17T06:50:12.006Z,40.13
2022-10-17T06:55:22.651Z,40.38
2022-10-17T07:00:48.481Z,38.40
2022-10-17T07:11:09.316Z,35.85
2022-10-17T07:16:12.467Z,34.22
2022-10-17T07:21:15.904Z,38.90
2022-10-17T07:26:19.694Z,33.70
2022-10-17T07:31:24.086Z,32.00
2022-10-17T07:36:26.922Z,28.02
2022-10-17T07:41:30.493Z,30.92
2022-10-17T07:46:39.030Z,31.02
2022-10-17T07:51:41.974Z,33.97
2022-10-17T07:56:44.116Z,32.83
2022-10-17T08:01:46.404Z,25.98
2022-10-17T08:06:50.827Z,28.00
2022-10-17T08:11:55.368Z,29.55
2022-10-17T08:16:57.537Z,26.58
2022-10-17T08:21:59.600Z,30.65
2022-10-17T08:27:01.714Z,33.60
2022-10-17T08:32:06.509Z,25.08
2022-10-17T08:42:13.107Z,27.30
2022-10-17T08:47:20.927Z,21.80
2022-10-17T08:52:45.109Z,27.17
2022-10-17T08:57:48.174Z,32.63
2022-10-17T09:03:14.724Z,27.75
2022-10-17T09:08:53.132Z,27.10
2022-10-17T09:14:13.337Z,27.48
2022-10-17T09:19:30.429Z,23.17
2022-10-17T09:24:51.137Z,26.02
2022-10-17T09:30:21.508Z,21.67
2022-10-17T09:35:38.377Z,28.83
2022-10-17T09:40:40.821Z,21.70
2022-10-17T09:46:00.337Z,22.05
2022-10-17T09:51:21.719Z,26.52
2022-10-17T09:56:24.314Z,23.30
2022-10-17T10:01:30.759Z,29.70
2022-10-17T10:06:32.822Z,29.88
2022-10-17T10:11:49.940Z,25.48
2022-10-17T10:16:53.759Z,23.25
2022-10-17T10:21:58.437Z,29.50
2022-10-17T10:27:04.247Z,23.58
2022-10-17T10:32:17.349Z,23.83
2022-10-17T10:37:27.446Z,26.55
2022-10-17T10:42:33.030Z,19.20
2022-10-17T10:47:35.644Z,23.77
2022-10-17T10:52:47.837Z,22.60
2022-10-17T10:57:53.120Z,21.15
2022-10-17T11:03:13.689Z,21.50
2022-10-17T11:08:43.275Z,20.10
2022-10-17T11:13:54.932Z,18.30
2022-10-17T11:19:16.687Z,19.88
2022-10-17T11:24:25.434Z,18.00
2022-10-17T11:29:36.303Z,18.05
2022-10-17T11:34:46.608Z,16.45
2022-10-17T11:39:56.412Z,17.23
2022-10-17T11:45:20.652Z,18.63
2022-10-17T11:56:03.113Z,20.45
2022-10-17T12:01:31.917Z,18.90
2022-10-17T12:06:48.753Z,19.83
2022-10-17T12:11:54.310Z,16.67
2022-10-17T12:16:56.290Z,18.25
2022-10-17T12:22:19.044Z,22.13
2022-10-17T12:27:33.362Z,19.30
2022-10-17T12:32:53.340Z,25.30
2022-10-17T12:38:16.680Z,16.83
2022-10-17T12:43:18.624Z,25.85
2022-10-17T12:48:39.062Z,17.90
2022-10-17T12:53:47.472Z,18.73
2022-10-17T12:58:51.750Z,19.00
2022-10-17T13:03:56.035Z,24.33
2022-10-17T13:09:05.573Z,20.08
2022-10-17T13:14:16.429Z,23.50
2022-10-17T13:19:23.573Z,27.20
2022-10-17T13:24:30.493Z,16.50
2022-10-17T13:29:32.991Z,22.17
2022-10-17T13:34:35.801Z,20.13
2022-10-17T13:39:55.223Z,17.67
2022-10-17T13:44:59.112Z,17.42
2022-10-17T13:50:01.202Z,21.35
2022-10-17T13:55:17.552Z,30.92
2022-10-17T14:00:23.011Z,19.23
2022-10-17T14:05:25.605Z,20.92
2022-10-17T14:10:37.460Z,18.13
2022-10-17T14:15:45.864Z,45.53
2022-10-17T14:26:21.136Z,43.20
2022-10-17T14:31:32.217Z,34.25
2022-10-17T14:36:38.393Z,40.25
2022-10-17T14:41:47.713Z,35.15
2022-10-17T14:46:57.962Z,39.85
2022-10-17T14:52:17.993Z,31.35
2022-10-17T14:57:35.113Z,60.78
2022-10-17T15:02:37.330Z,68.53
2022-10-17T15:07:39.552Z,66.83
2022-10-17T15:12:51.064Z,70.88
2022-10-17T15:18:00.970Z,59.08
2022-10-17T15:23:03.989Z,49.13
2022-10-17T15:28:07.649Z,58.17
2022-10-17T15:33:09.713Z,66.80
2022-10-17T15:38:17.927Z,64.25
2022-10-17T15:43:20.242Z,71.72
2022-10-17T15:48:29.325Z,70.90
2022-10-17T15:53:31.308Z,68.40
2022-10-17T15:58:40.422Z,77.28
2022-10-17T16:03:42.614Z,84.57
2022-10-17T16:08:49.237Z,83.38
2022-10-17T16:13:53.531Z,72.05
2022-10-17T16:18:55.745Z,65.65
2022-10-17T16:23:57.760Z,69.03
2022-10-17T16:29:02.848Z,66.35
2022-10-17T16:34:06.556Z,60.38
2022-10-17T16:44:14.772Z,57.47
2022-10-17T16:49:18.204Z,47.53
2022-10-17T16:59:22.151Z,43.45
2022-10-17T17:04:24.344Z,45.33
2022-10-17T17:09:26.755Z,59.33
2022-10-17T17:14:28.761Z,46.20
2022-10-17T17:19:30.809Z,47.78
2022-10-17T17:24:39.141Z,46.50
2022-10-17T17:29:58.711Z,61.75
2022-10-17T17:35:06.062Z,47.50
2022-10-17T17:40:08.452Z,53.67
2022-10-17T17:45:10.866Z,53.80
2022-10-17T17:50:13.479Z,36.15
2022-10-17T17:55:15.687Z,42.03
2022-10-17T18:00:17.720Z,43.58
2022-10-17T18:05:19.701Z,39.95
2022-10-17T18:10:22.052Z,33.30
2022-10-17T18:15:24.248Z,36.35
2022-10-17T18:20:27.746Z,33.25
2022-10-17T18:30:34.477Z,37.30
2022-10-17T18:35:36.569Z,37.88
2022-10-17T18:40:38.575Z,38.50
2022-10-17T18:45:40.563Z,38.83
2022-10-17T18:50:42.801Z,35.03
2022-10-17T19:00:52.071Z,33.55
2022-10-17T19:05:56.667Z,37.83
2022-10-17T19:11:37.613Z,35.60
2022-10-17T19:16:48.804Z,35.22
2022-10-17T19:21:57.347Z,32.40
2022-10-17T19:27:02.679Z,37.10
2022-10-17T19:32:12.106Z,35.63
2022-10-17T19:37:18.111Z,36.40
2022-10-17T19:42:20.296Z,36.28
2022-10-17T19:47:22.257Z,36.90
2022-10-17T19:52:24.454Z,36.83
2022-10-17T19:57:26.501Z,35.35
2022-10-17T20:02:28.837Z,34.53
2022-10-17T20:07:31.056Z,38.80
2022-10-17T20:12:33.680Z,32.58
2022-10-17T20:17:35.739Z,33.33
2022-10-17T20:22:37.765Z,43.22
2022-10-17T20:27:40.022Z,35.17
2022-10-17T20:32:42.173Z,33.75
2022-10-17T20:37:44.154Z,34.53
2022-10-17T20:42:46.238Z,32.33
2022-10-17T20:47:52.451Z,32.95
2022-10-17T20:53:06.321Z,29.95
2022-10-17T20:58:16.673Z,35.72
2022-10-17T21:03:18.726Z,34.22
2022-10-17T21:08:20.742Z,35.85
2022-10-17T21:13:22.989Z,36.33
2022-10-17T21:18:25.131Z,34.60
2022-10-17T21:23:28.129Z,36.25
2022-10-17T21:28:31.165Z,36.85
2022-10-17T21:33:33.361Z,37.15
2022-10-17T21:38:37.649Z,33.15
2022-10-17T21:43:46.613Z,35.33
2022-10-17T21:48:49.508Z,27.33
2022-10-17T21:53:53.388Z,33.37
2022-10-17T21:58:55.860Z,35.75
2022-10-17T22:03:59.745Z,34.05
2022-10-17T22:09:02.483Z,39.63
2022-10-17T22:14:07.688Z,36.60
2022-10-17T22:19:11.336Z,39.63
2022-10-17T22:24:14.959Z,34.90
2022-10-17T22:34:19.557Z,40.00
2022-10-17T22:39:21.433Z,35.17
2022-10-17T22:44:25.431Z,34.88
2022-10-17T22:49:27.315Z,40.50
2022-10-17T22:54:29.237Z,38.03
2022-10-17T22:59:31.196Z,36.85
2022-10-17T23:04:33.744Z,35.70
2022-10-17T23:09:35.634Z,38.42
2022-10-17T23:14:37.973Z,33.88
2022-10-17T23:19:40.084Z,37.85
2022-10-17T23:24:42.022Z,44.30
2022-10-17T23:29:43.897Z,35.50
2022-10-17T23:34:45.861Z,37.97
2022-10-17T23:39:47.917Z,38.00
2022-10-17T23:44:49.893Z,37.95
2022-10-17T23:49:52.009Z,40.13
2022-10-17T23:54:54.205Z,47.17
2022-10-17T23:59:56.117Z,39.78
